sensor_id;sensor_type;location;lat;lon;timestamp;pressure;altitude;pressure_sealevel;temperature
64600;BMP280;6553;48.412;9.514;2023-02-27T00:01:03;71624.53;;;19.53
64600;BMP280;6553;48.412;9.514;2023-02-27T00:03:29;71625.59;;;19.54
64600;BMP280;6553;48.412;9.514;2023-02-27T00:05:55;71628.38;;;19.54
64600;BMP280;6553;48.412;9.514;2023-02-27T00:08:21;71628.38;;;19.54
64600;BMP280;6553;48.412;9.514;2023-02-27T00:10:47;71628.38;;;19.54
64600;BMP280;6553;48.412;9.514;2023-02-27T00:13:13;71630.63;;;19.53
64600;BMP280;6553;48.412;9.514;2023-02-27T00:15:39;71631.66;;;19.54
64600;BMP280;6553;48.412;9.514;2023-02-27T00:18:06;71628.78;;;19.57
64600;BMP280;6553;48.412;9.514;2023-02-27T00:20:32;71630.09;;;19.53
64600;BMP280;6553;48.412;9.514;2023-02-27T00:23:04;71634.31;;;19.57
64600;BMP280;6553;48.412;9.514;2023-02-27T00:25:32;71630.63;;;19.53
64600;BMP280;6553;48.412;9.514;2023-02-27T00:27:58;71623.50;;;19.52
64600;BMP280;6553;48.412;9.514;2023-02-27T00:30:24;71633.78;;;19.56
64600;BMP280;6553;48.412;9.514;2023-02-27T00:32:52;71628.25;;;19.56
64600;BMP280;6553;48.412;9.514;2023-02-27T00:35:18;71628.78;;;19.57
64600;BMP280;6553;48.412;9.514;2023-02-27T00:37:45;71634.31;;;19.57
64600;BMP280;6553;48.412;9.514;2023-02-27T00:40:12;71627.72;;;19.56
64600;BMP280;6553;48.412;9.514;2023-02-27T00:42:38;71634.19;;;19.59
64600;BMP280;6553;48.412;9.514;2023-02-27T00:45:05;71630.91;;;19.59
64600;BMP280;6553;48.412;9.514;2023-02-27T00:47:33;71636.44;;;19.59
64600;BMP280;6553;48.412;9.514;2023-02-27T00:49:59;71630.91;;;19.59
64600;BMP280;6553;48.412;9.514;2023-02-27T00:52:26;71629.88;;;19.58
64600;BMP280;6553;48.412;9.514;2023-02-27T00:54:52;71635.41;;;19.58
64600;BMP280;6553;48.412;9.514;2023-02-27T00:57:18;71634.31;;;19.57
64600;BMP280;6553;48.412;9.514;2023-02-27T00:59:44;71632.63;;;19.58
64600;BMP280;6553;48.412;9.514;2023-02-27T01:02:12;71634.31;;;19.57
64600;BMP280;6553;48.412;9.514;2023-02-27T01:04:39;71633.16;;;19.58
64600;BMP280;6553;48.412;9.514;2023-02-27T01:07:06;71630.38;;;19.58
64600;BMP280;6553;48.412;9.514;2023-02-27T01:09:32;71637.50;;;19.60
64600;BMP280;6553;48.412;9.514;2023-02-27T01:11:58;71631.44;;;19.59
64600;BMP280;6553;48.412;9.514;2023-02-27T01:14:24;71631.44;;;19.59
64600;BMP280;6553;48.412;9.514;2023-02-27T01:16:50;71631.97;;;19.60
64600;BMP280;6553;48.412;9.514;2023-02-27T01:19:16;71635.41;;;19.58
64600;BMP280;6553;48.412;9.514;2023-02-27T01:21:43;71632.63;;;19.58
64600;BMP280;6553;48.412;9.514;2023-02-27T01:24:09;71635.91;;;19.58
64600;BMP280;6553;48.412;9.514;2023-02-27T01:26:35;71629.31;;;19.57
64600;BMP280;6553;48.412;9.514;2023-02-27T01:29:01;71634.31;;;19.57
64600;BMP280;6553;48.412;9.514;2023-02-27T01:31:27;71632.50;;;19.60
64600;BMP280;6553;48.412;9.514;2023-02-27T01:33:53;71632.63;;;19.58
64600;BMP280;6553;48.412;9.514;2023-02-27T01:36:19;71637.50;;;19.60
64600;BMP280;6553;48.412;9.514;2023-02-27T01:38:45;71629.88;;;19.58
64600;BMP280;6553;48.412;9.514;2023-02-27T01:41:11;71632.75;;;19.55
64600;BMP280;6553;48.412;9.514;2023-02-27T01:43:59;71632.63;;;19.58
64600;BMP280;6553;48.412;9.514;2023-02-27T01:46:28;71633.69;;;19.59
64600;BMP280;6553;48.412;9.514;2023-02-27T01:49:19;71633.69;;;19.59
64600;BMP280;6553;48.412;9.514;2023-02-27T01:51:52;71629.44;;;19.55
64600;BMP280;6553;48.412;9.514;2023-02-27T01:54:25;71631.66;;;19.54
64600;BMP280;6553;48.412;9.514;2023-02-27T01:56:51;71632.63;;;19.58
64600;BMP280;6553;48.412;9.514;2023-02-27T01:59:18;71630.91;;;19.59
64600;BMP280;6553;48.412;9.514;2023-02-27T02:01:44;71632.63;;;19.58
64600;BMP280;6553;48.412;9.514;2023-02-27T02:04:30;71628.78;;;19.57
64600;BMP280;6553;48.412;9.514;2023-02-27T02:07:12;71633.25;;;19.56
64600;BMP280;6553;48.412;9.514;2023-02-27T02:09:50;71630.50;;;19.56
64600;BMP280;6553;48.412;9.514;2023-02-27T02:12:20;71631.13;;;19.54
64600;BMP280;6553;48.412;9.514;2023-02-27T02:14:47;71631.03;;;19.56
64600;BMP280;6553;48.412;9.514;2023-02-27T02:17:25;71630.50;;;19.56
64600;BMP280;6553;48.412;9.514;2023-02-27T02:26:14;71632.19;;;19.55
64600;BMP280;6553;48.412;9.514;2023-02-27T02:29:33;71628.78;;;19.57
64600;BMP280;6553;48.412;9.514;2023-02-27T02:32:24;71630.09;;;19.53
64600;BMP280;6553;48.412;9.514;2023-02-27T02:38:25;71624.00;;;19.52
64600;BMP280;6553;48.412;9.514;2023-02-27T02:51:52;71632.75;;;19.55
64600;BMP280;6553;48.412;9.514;2023-02-27T02:54:40;71631.66;;;19.54
64600;BMP280;6553;48.412;9.514;2023-02-27T02:57:24;71631.13;;;19.54
64600;BMP280;6553;48.412;9.514;2023-02-27T03:00:05;71626.66;;;19.55
64600;BMP280;6553;48.412;9.514;2023-02-27T03:02:46;71632.19;;;19.55
64600;BMP280;6553;48.412;9.514;2023-02-27T03:05:32;71631.13;;;19.54
64600;BMP280;6553;48.412;9.514;2023-02-27T03:08:05;71627.72;;;19.56
64600;BMP280;6553;48.412;9.514;2023-02-27T03:10:41;71629.44;;;19.55
64600;BMP280;6553;48.412;9.514;2023-02-27T03:13:39;71626.13;;;19.54
64600;BMP280;6553;48.412;9.514;2023-02-27T03:24:23;71630.63;;;19.53
64600;BMP280;6553;48.412;9.514;2023-02-27T03:26:52;71628.91;;;19.54
64600;BMP280;6553;48.412;9.514;2023-02-27T03:29:32;71631.25;;;19.51
64600;BMP280;6553;48.412;9.514;2023-02-27T03:32:16;71628.91;;;19.54
64600;BMP280;6553;48.412;9.514;2023-02-27T03:34:44;71629.53;;;19.52
64600;BMP280;6553;48.412;9.514;2023-02-27T03:40:48;71628.91;;;19.54
64600;BMP280;6553;48.412;9.514;2023-02-27T03:43:29;71626.66;;;19.55
64600;BMP280;6553;48.412;9.514;2023-02-27T03:46:16;71632.19;;;19.55
64600;BMP280;6553;48.412;9.514;2023-02-27T03:48:44;71628.38;;;19.54
64600;BMP280;6553;48.412;9.514;2023-02-27T03:51:13;71628.78;;;19.57
64600;BMP280;6553;48.412;9.514;2023-02-27T03:56:15;71627.31;;;19.53
64600;BMP280;6553;48.412;9.514;2023-02-27T03:58:43;71630.50;;;19.56
64600;BMP280;6553;48.412;9.514;2023-02-27T04:01:10;71626.13;;;19.54
64600;BMP280;6553;48.412;9.514;2023-02-27T04:03:45;71632.19;;;19.55
64600;BMP280;6553;48.412;9.514;2023-02-27T04:06:17;71632.09;;;19.57
64600;BMP280;6553;48.412;9.514;2023-02-27T04:21:41;71632.63;;;19.58
64600;BMP280;6553;48.412;9.514;2023-02-27T04:24:49;71636.03;;;19.56
64600;BMP280;6553;48.412;9.514;2023-02-27T04:27:39;71630.63;;;19.53
64600;BMP280;6553;48.412;9.514;2023-02-27T04:42:04;71628.38;;;19.54
64600;BMP280;6553;48.412;9.514;2023-02-27T04:44:35;71634.44;;;19.54
64600;BMP280;6553;48.412;9.514;2023-02-27T04:47:05;71631.56;;;19.57
64600;BMP280;6553;48.412;9.514;2023-02-27T04:50:09;71625.09;;;19.53
64600;BMP280;6553;48.412;9.514;2023-02-27T04:52:43;71631.13;;;19.54
64600;BMP280;6553;48.412;9.514;2023-02-27T04:55:24;71626.66;;;19.55
64600;BMP280;6553;48.412;9.514;2023-02-27T04:58:02;71626.13;;;19.54
64600;BMP280;6553;48.412;9.514;2023-02-27T05:00:31;71628.78;;;19.57
64600;BMP280;6553;48.412;9.514;2023-02-27T05:03:08;71635.41;;;19.58
64600;BMP280;6553;48.412;9.514;2023-02-27T05:05:39;71628.78;;;19.57
64600;BMP280;6553;48.412;9.514;2023-02-27T05:08:15;71628.78;;;19.57
64600;BMP280;6553;48.412;9.514;2023-02-27T05:10:52;71629.31;;;19.57
64600;BMP280;6553;48.412;9.514;2023-02-27T05:13:31;71628.78;;;19.57
64600;BMP280;6553;48.412;9.514;2023-02-27T05:16:10;71637.09;;;19.57
64600;BMP280;6553;48.412;9.514;2023-02-27T05:18:38;71631.13;;;19.54
64600;BMP280;6553;48.412;9.514;2023-02-27T05:21:26;71627.72;;;19.56
64600;BMP280;6553;48.412;9.514;2023-02-27T05:35:13;71629.88;;;19.58
64600;BMP280;6553;48.412;9.514;2023-02-27T05:37:55;71632.09;;;19.57
64600;BMP280;6553;48.412;9.514;2023-02-27T05:40:45;71627.72;;;19.56
64600;BMP280;6553;48.412;9.514;2023-02-27T05:43:27;71633.16;;;19.58
64600;BMP280;6553;48.412;9.514;2023-02-27T05:46:05;71633.78;;;19.56
64600;BMP280;6553;48.412;9.514;2023-02-27T05:48:40;71629.03;;;19.52
64600;BMP280;6553;48.412;9.514;2023-02-27T05:51:08;71633.16;;;19.58
64600;BMP280;6553;48.412;9.514;2023-02-27T05:53:45;71626.66;;;19.55
64600;BMP280;6553;48.412;9.514;2023-02-27T05:56:17;71630.50;;;19.56
64600;BMP280;6553;48.412;9.514;2023-02-27T05:58:54;71633.25;;;19.56
64600;BMP280;6553;48.412;9.514;2023-02-27T06:01:21;71626.13;;;19.54
64600;BMP280;6553;48.412;9.514;2023-02-27T06:03:47;71626.13;;;19.54
64600;BMP280;6553;48.412;9.514;2023-02-27T06:06:16;71627.72;;;19.56
64600;BMP280;6553;48.412;9.514;2023-02-27T06:08:44;71634.31;;;19.57
64600;BMP280;6553;48.412;9.514;2023-02-27T06:11:11;71632.09;;;19.57
64600;BMP280;6553;48.412;9.514;2023-02-27T06:13:38;71626.13;;;19.54
64600;BMP280;6553;48.412;9.514;2023-02-27T06:16:04;71632.63;;;19.58
64600;BMP280;6553;48.412;9.514;2023-02-27T06:18:31;71632.09;;;19.57
64600;BMP280;6553;48.412;9.514;2023-02-27T06:20:57;71636.97;;;19.59
64600;BMP280;6553;48.412;9.514;2023-02-27T06:23:23;71634.31;;;19.57
64600;BMP280;6553;48.412;9.514;2023-02-27T06:25:49;71627.72;;;19.56
64600;BMP280;6553;48.412;9.514;2023-02-27T06:28:15;71636.44;;;19.59
64600;BMP280;6553;48.412;9.514;2023-02-27T06:30:40;71630.38;;;19.58
64600;BMP280;6553;48.412;9.514;2023-02-27T06:33:06;71634.88;;;19.57
64600;BMP280;6553;48.412;9.514;2023-02-27T06:35:32;71632.50;;;19.60
64600;BMP280;6553;48.412;9.514;2023-02-27T06:37:58;71636.44;;;19.59
64600;BMP280;6553;48.412;9.514;2023-02-27T06:40:24;71635.81;;;19.61
64600;BMP280;6553;48.412;9.514;2023-02-27T06:42:50;71638.03;;;19.60
64600;BMP280;6553;48.412;9.514;2023-02-27T06:45:17;71639.13;;;19.62
64600;BMP280;6553;48.412;9.514;2023-02-27T06:47:44;71634.19;;;19.59
64600;BMP280;6553;48.412;9.514;2023-02-27T06:50:12;71634.75;;;19.60
64600;BMP280;6553;48.412;9.514;2023-02-27T06:52:39;71632.50;;;19.60
64600;BMP280;6553;48.412;9.514;2023-02-27T06:55:06;71637.50;;;19.60
64600;BMP280;6553;48.412;9.514;2023-02-27T06:57:33;71634.75;;;19.60
64600;BMP280;6553;48.412;9.514;2023-02-27T06:59:59;71640.16;;;19.63
64600;BMP280;6553;48.412;9.514;2023-02-27T07:02:25;71645.19;;;19.62
64600;BMP280;6553;48.412;9.514;2023-02-27T07:04:51;71641.75;;;19.64
64600;BMP280;6553;48.412;9.514;2023-02-27T07:07:18;71634.63;;;19.63
64600;BMP280;6553;48.412;9.514;2023-02-27T07:09:44;71640.16;;;19.63
64600;BMP280;6553;48.412;9.514;2023-02-27T07:12:10;71634.63;;;19.63
64600;BMP280;6553;48.412;9.514;2023-02-27T07:14:36;71641.75;;;19.64
64600;BMP280;6553;48.412;9.514;2023-02-27T07:17:03;71642.94;;;19.63
64600;BMP280;6553;48.412;9.514;2023-02-27T07:19:30;71637.91;;;19.63
64600;BMP280;6553;48.412;9.514;2023-02-27T07:21:56;71640.16;;;19.63
64600;BMP280;6553;48.412;9.514;2023-02-27T07:24:22;71641.75;;;19.64
64600;BMP280;6553;48.412;9.514;2023-02-27T07:26:48;71640.06;;;19.65
64600;BMP280;6553;48.412;9.514;2023-02-27T07:29:14;71638.38;;;19.66
64600;BMP280;6553;48.412;9.514;2023-02-27T07:31:40;71650.25;;;19.72
64600;BMP280;6553;48.412;9.514;2023-02-27T07:34:06;71647.50;;;19.72
64600;BMP280;6553;48.412;9.514;2023-02-27T07:36:32;71651.44;;;19.71
64600;BMP280;6553;48.412;9.514;2023-02-27T07:38:58;71648.03;;;19.73
64600;BMP280;6553;48.412;9.514;2023-02-27T07:41:25;71652.50;;;19.72
64600;BMP280;6553;48.412;9.514;2023-02-27T07:43:51;71643.66;;;19.71
64600;BMP280;6553;48.412;9.514;2023-02-27T07:46:16;71642.59;;;19.70
64600;BMP280;6553;48.412;9.514;2023-02-27T07:48:42;71646.94;;;19.72
64600;BMP280;6553;48.412;9.514;2023-02-27T07:51:08;71650.25;;;19.72
64600;BMP280;6553;48.412;9.514;2023-02-27T07:53:34;71644.72;;;19.72
64600;BMP280;6553;48.412;9.514;2023-02-27T07:55:59;71652.78;;;19.77
64600;BMP280;6553;48.412;9.514;2023-02-27T07:58:25;71659.28;;;19.81
64600;BMP280;6553;48.412;9.514;2023-02-27T08:00:53;71661.94;;;19.83
64600;BMP280;6553;48.412;9.514;2023-02-27T08:03:19;71662.34;;;19.86
64600;BMP280;6553;48.412;9.514;2023-02-27T08:05:44;71668.84;;;19.90
64600;BMP280;6553;48.412;9.514;2023-02-27T08:08:10;71667.13;;;19.91
64600;BMP280;6553;48.412;9.514;2023-02-27T08:10:36;71665.53;;;19.89
64600;BMP280;6553;48.412;9.514;2023-02-27T08:13:02;71665.44;;;19.92
64600;BMP280;6553;48.412;9.514;2023-02-27T08:15:28;71664.88;;;19.91
64600;BMP280;6553;48.412;9.514;2023-02-27T08:17:53;71670.97;;;19.92
64600;BMP280;6553;48.412;9.514;2023-02-27T08:20:19;71673.59;;;19.94
64600;BMP280;6553;48.412;9.514;2023-02-27T08:22:49;71677.44;;;19.95
64600;BMP280;6553;48.412;9.514;2023-02-27T08:25:15;71671.91;;;19.95
64600;BMP280;6553;48.412;9.514;2023-02-27T08:27:41;71674.56;;;19.98
64600;BMP280;6553;48.412;9.514;2023-02-27T08:30:09;71676.69;;;20.00
64600;BMP280;6553;48.412;9.514;2023-02-27T08:32:35;71686.09;;;20.01
64600;BMP280;6553;48.412;9.514;2023-02-27T08:35:01;71685.28;;;20.05
64600;BMP280;6553;48.412;9.514;2023-02-27T08:37:28;71688.59;;;20.06
64600;BMP280;6553;48.412;9.514;2023-02-27T08:39:54;71681.47;;;20.04
64600;BMP280;6553;48.412;9.514;2023-02-27T08:42:19;71683.06;;;20.06
64600;BMP280;6553;48.412;9.514;2023-02-27T08:44:45;71681.34;;;20.07
64600;BMP280;6553;48.412;9.514;2023-02-27T08:47:11;71680.28;;;20.06
64600;BMP280;6553;48.412;9.514;2023-02-27T08:49:37;71681.47;;;20.04
64600;BMP280;6553;48.412;9.514;2023-02-27T08:52:03;71688.06;;;20.05
64600;BMP280;6553;48.412;9.514;2023-02-27T08:54:30;71683.59;;;20.06
64600;BMP280;6553;48.412;9.514;2023-02-27T08:56:56;71689.56;;;20.09
64600;BMP280;6553;48.412;9.514;2023-02-27T08:59:22;71682.94;;;20.08
64600;BMP280;6553;48.412;9.514;2023-02-27T09:01:48;71690.63;;;20.10
64600;BMP280;6553;48.412;9.514;2023-02-27T09:04:14;71691.69;;;20.11
64600;BMP280;6553;48.412;9.514;2023-02-27T09:06:40;71691.16;;;20.11
64600;BMP280;6553;48.412;9.514;2023-02-27T09:09:06;71685.19;;;20.08
64600;BMP280;6553;48.412;9.514;2023-02-27T09:11:32;71688.50;;;20.08
64600;BMP280;6553;48.412;9.514;2023-02-27T09:13:58;71687.97;;;20.08
64600;BMP280;6553;48.412;9.514;2023-02-27T09:16:24;71681.91;;;20.07
64600;BMP280;6553;48.412;9.514;2023-02-27T09:18:50;71691.78;;;20.09
64600;BMP280;6553;48.412;9.514;2023-02-27T09:21:17;71692.75;;;20.12
64600;BMP280;6553;48.412;9.514;2023-02-27T09:23:43;71691.69;;;20.11
64600;BMP280;6553;48.412;9.514;2023-02-27T09:26:09;71689.44;;;20.12
64600;BMP280;6553;48.412;9.514;2023-02-27T09:28:36;71691.69;;;20.11
64600;BMP280;6553;48.412;9.514;2023-02-27T09:33:38;71690.50;;;20.13
64600;BMP280;6553;48.412;9.514;2023-02-27T09:36:05;71689.84;;;20.15
64600;BMP280;6553;48.412;9.514;2023-02-27T09:38:34;71691.56;;;20.14
64600;BMP280;6553;48.412;9.514;2023-02-27T09:41:00;71689.31;;;20.14
64600;BMP280;6553;48.412;9.514;2023-02-27T09:43:37;71689.31;;;20.14
64600;BMP280;6553;48.412;9.514;2023-02-27T09:46:06;71690.50;;;20.13
64600;BMP280;6553;48.412;9.514;2023-02-27T09:48:42;71689.56;;;20.09
64600;BMP280;6553;48.412;9.514;2023-02-27T09:51:10;71691.69;;;20.11
64600;BMP280;6553;48.412;9.514;2023-02-27T09:53:43;71684.53;;;20.10
64600;BMP280;6553;48.412;9.514;2023-02-27T09:56:25;71698.16;;;20.15
64600;BMP280;6553;48.412;9.514;2023-02-27T10:05:37;71696.59;;;20.13
64600;BMP280;6553;48.412;9.514;2023-02-27T10:08:18;71693.81;;;20.13
64600;BMP280;6553;48.412;9.514;2023-02-27T10:11:06;71693.16;;;20.15
64600;BMP280;6553;48.412;9.514;2023-02-27T10:13:57;71694.75;;;20.17
64600;BMP280;6553;48.412;9.514;2023-02-27T10:16:25;71696.59;;;20.13
64600;BMP280;6553;48.412;9.514;2023-02-27T10:18:54;71686.66;;;20.12
64600;BMP280;6553;48.412;9.514;2023-02-27T10:21:40;71694.31;;;20.14
64600;BMP280;6553;48.412;9.514;2023-02-27T10:24:51;71691.44;;;20.16
64600;BMP280;6553;48.412;9.514;2023-02-27T10:27:20;71691.03;;;20.13
64600;BMP280;6553;48.412;9.514;2023-02-27T10:29:46;71694.88;;;20.14
64600;BMP280;6553;48.412;9.514;2023-02-27T10:32:22;71694.88;;;20.14
64600;BMP280;6553;48.412;9.514;2023-02-27T10:35:24;71694.75;;;20.17
64600;BMP280;6553;48.412;9.514;2023-02-27T10:38:16;71697.53;;;20.17
64600;BMP280;6553;48.412;9.514;2023-02-27T10:40:44;71693.28;;;20.13
64600;BMP280;6553;48.412;9.514;2023-02-27T10:43:16;71688.91;;;20.11
64600;BMP280;6553;48.412;9.514;2023-02-27T10:45:43;71689.56;;;20.09
64600;BMP280;6553;48.412;9.514;2023-02-27T10:48:11;71689.56;;;20.09
64600;BMP280;6553;48.412;9.514;2023-02-27T10:50:42;71699.75;;;20.16
64600;BMP280;6553;48.412;9.514;2023-02-27T10:53:26;71697.00;;;20.16
64600;BMP280;6553;48.412;9.514;2023-02-27T10:56:06;71702.41;;;20.19
64600;BMP280;6553;48.412;9.514;2023-02-27T10:58:37;71699.63;;;20.19
64600;BMP280;6553;48.412;9.514;2023-02-27T11:01:11;71693.28;;;20.13
64600;BMP280;6553;48.412;9.514;2023-02-27T11:03:43;71696.44;;;20.16
64600;BMP280;6553;48.412;9.514;2023-02-27T11:06:22;71691.56;;;20.14
64600;BMP280;6553;48.412;9.514;2023-02-27T11:09:26;71691.56;;;20.14
64600;BMP280;6553;48.412;9.514;2023-02-27T11:11:54;71691.56;;;20.14
64600;BMP280;6553;48.412;9.514;2023-02-27T11:14:29;71698.06;;;20.17
64600;BMP280;6553;48.412;9.514;2023-02-27T11:16:59;71706.78;;;20.20
64600;BMP280;6553;48.412;9.514;2023-02-27T11:19:37;71701.66;;;20.23
64600;BMP280;6553;48.412;9.514;2023-02-27T11:22:16;71698.34;;;20.23
64600;BMP280;6553;48.412;9.514;2023-02-27T11:24:43;71699.00;;;20.21
64600;BMP280;6553;48.412;9.514;2023-02-27T11:27:24;71699.00;;;20.21
64600;BMP280;6553;48.412;9.514;2023-02-27T11:30:02;71706.53;;;20.25
64600;BMP280;6553;48.412;9.514;2023-02-27T11:32:46;71699.00;;;20.21
64600;BMP280;6553;48.412;9.514;2023-02-27T11:35:31;71699.63;;;20.19
64600;BMP280;6553;48.412;9.514;2023-02-27T11:38:05;71699.13;;;20.18
64600;BMP280;6553;48.412;9.514;2023-02-27T11:40:59;71696.34;;;20.18
64600;BMP280;6553;48.412;9.514;2023-02-27T11:43:32;71689.84;;;20.15
64600;BMP280;6553;48.412;9.514;2023-02-27T11:46:05;71690.91;;;20.16
64600;BMP280;6553;48.412;9.514;2023-02-27T11:54:42;71699.13;;;20.18
64600;BMP280;6553;48.412;9.514;2023-02-27T11:57:23;71690.50;;;20.13
64600;BMP280;6553;48.412;9.514;2023-02-27T12:05:52;71692.09;;;20.14
64600;BMP280;6553;48.412;9.514;2023-02-27T12:08:32;71697.53;;;20.17
64600;BMP280;6553;48.412;9.514;2023-02-27T12:11:20;71698.06;;;20.17
64600;BMP280;6553;48.412;9.514;2023-02-27T12:14:02;71695.28;;;20.17
64600;BMP280;6553;48.412;9.514;2023-02-27T12:16:47;71698.06;;;20.17
64600;BMP280;6553;48.412;9.514;2023-02-27T12:19:20;71694.22;;;20.16
64600;BMP280;6553;48.412;9.514;2023-02-27T12:22:03;71699.22;;;20.16
64600;BMP280;6553;48.412;9.514;2023-02-27T12:24:45;71698.56;;;20.18
64600;BMP280;6553;48.412;9.514;2023-02-27T12:27:54;71689.31;;;20.14
64600;BMP280;6553;48.412;9.514;2023-02-27T12:30:32;71693.16;;;20.15
64600;BMP280;6553;48.412;9.514;2023-02-27T12:33:17;71697.53;;;20.17
64600;BMP280;6553;48.412;9.514;2023-02-27T12:35:54;71697.00;;;20.16
64600;BMP280;6553;48.412;9.514;2023-02-27T12:38:23;71694.22;;;20.16
64600;BMP280;6553;48.412;9.514;2023-02-27T12:41:23;71692.53;;;20.17
64600;BMP280;6553;48.412;9.514;2023-02-27T12:47:18;71695.81;;;20.18
64600;BMP280;6553;48.412;9.514;2023-02-27T12:50:11;71693.56;;;20.18
64600;BMP280;6553;48.412;9.514;2023-02-27T12:53:24;71694.75;;;20.17
64600;BMP280;6553;48.412;9.514;2023-02-27T12:56:01;71694.22;;;20.16
64600;BMP280;6553;48.412;9.514;2023-02-27T12:58:58;71697.53;;;20.17
64600;BMP280;6553;48.412;9.514;2023-02-27T13:01:46;71693.69;;;20.16
64600;BMP280;6553;48.412;9.514;2023-02-27T13:07:42;71699.63;;;20.19
64600;BMP280;6553;48.412;9.514;2023-02-27T13:13:42;71694.75;;;20.17
64600;BMP280;6553;48.412;9.514;2023-02-27T13:16:20;71694.75;;;20.17
64600;BMP280;6553;48.412;9.514;2023-02-27T13:19:04;71696.34;;;20.18
64600;BMP280;6553;48.412;9.514;2023-02-27T13:21:39;71697.00;;;20.16
64600;BMP280;6553;48.412;9.514;2023-02-27T13:24:30;71693.03;;;20.18
64600;BMP280;6553;48.412;9.514;2023-02-27T13:27:07;71702.81;;;20.22
64600;BMP280;6553;48.412;9.514;2023-02-27T13:32:39;71712.28;;;20.33
64600;BMP280;6553;48.412;9.514;2023-02-27T13:35:18;71720.38;;;20.38
64600;BMP280;6553;48.412;9.514;2023-02-27T13:38:01;71726.31;;;20.41
64600;BMP280;6553;48.412;9.514;2023-02-27T13:40:39;71725.66;;;20.43
64600;BMP280;6553;48.412;9.514;2023-02-27T13:48:38;71725.03;;;20.45
64600;BMP280;6553;48.412;9.514;2023-02-27T13:59:32;71724.50;;;20.45
64600;BMP280;6553;48.412;9.514;2023-02-27T14:04:52;71720.09;;;20.43
64600;BMP280;6553;48.412;9.514;2023-02-27T14:07:46;71726.06;;;20.46
64600;BMP280;6553;48.412;9.514;2023-02-27T14:10:26;71727.66;;;20.48
64600;BMP280;6553;48.412;9.514;2023-02-27T14:12:53;71729.91;;;20.47
64600;BMP280;6553;48.412;9.514;2023-02-27T14:17:53;71724.91;;;20.48
64600;BMP280;6553;48.412;9.514;2023-02-27T14:25:55;71723.00;;;20.41
64600;BMP280;6553;48.412;9.514;2023-02-27T14:28:51;71724.09;;;20.42
64600;BMP280;6553;48.412;9.514;2023-02-27T14:31:35;71722.88;;;20.43
64600;BMP280;6553;48.412;9.514;2023-02-27T14:34:04;71728.97;;;20.44
64600;BMP280;6553;48.412;9.514;2023-02-27T14:36:49;71726.19;;;20.44
64600;BMP280;6553;48.412;9.514;2023-02-27T14:44:41;71721.84;;;20.42
64600;BMP280;6553;48.412;9.514;2023-02-27T14:47:29;71727.41;;;20.42
64600;BMP280;6553;48.412;9.514;2023-02-27T14:49:56;71723.94;;;20.44
64600;BMP280;6553;48.412;9.514;2023-02-27T14:54:50;71727.13;;;20.47
64600;BMP280;6553;48.412;9.514;2023-02-27T14:57:23;71728.84;;;20.46
64600;BMP280;6553;48.412;9.514;2023-02-27T14:59:52;71724.50;;;20.45
64600;BMP280;6553;48.412;9.514;2023-02-27T15:02:26;71726.63;;;20.47
64600;BMP280;6553;48.412;9.514;2023-02-27T15:07:33;71726.06;;;20.46
64600;BMP280;6553;48.412;9.514;2023-02-27T15:10:03;71728.34;;;20.46
64600;BMP280;6553;48.412;9.514;2023-02-27T15:12:36;71732.16;;;20.47
64600;BMP280;6553;48.412;9.514;2023-02-27T15:15:04;71720.25;;;20.41
64600;BMP280;6553;48.412;9.514;2023-02-27T15:17:39;71721.84;;;20.42
64600;BMP280;6553;48.412;9.514;2023-02-27T15:20:31;71720.25;;;20.41
64600;BMP280;6553;48.412;9.514;2023-02-27T15:23:00;71721.41;;;20.39
64600;BMP280;6553;48.412;9.514;2023-02-27T15:25:32;71719.84;;;20.38
64600;BMP280;6553;48.412;9.514;2023-02-27T15:28:03;71719.69;;;20.40
64600;BMP280;6553;48.412;9.514;2023-02-27T15:30:30;71718.53;;;20.42
64600;BMP280;6553;48.412;9.514;2023-02-27T15:32:58;71727.41;;;20.42
64600;BMP280;6553;48.412;9.514;2023-02-27T15:35:33;71718.63;;;20.39
64600;BMP280;6553;48.412;9.514;2023-02-27T15:37:59;71723.00;;;20.41
64600;BMP280;6553;48.412;9.514;2023-02-27T15:40:32;71723.00;;;20.41
64600;BMP280;6553;48.412;9.514;2023-02-27T15:42:59;71717.47;;;20.41
64600;BMP280;6553;48.412;9.514;2023-02-27T15:45:44;71725.66;;;20.43
64600;BMP280;6553;48.412;9.514;2023-02-27T15:48:15;71719.69;;;20.40
64600;BMP280;6553;48.412;9.514;2023-02-27T15:50:47;71720.78;;;20.41
64600;BMP280;6553;48.412;9.514;2023-02-27T15:53:18;71721.94;;;20.40
64600;BMP280;6553;48.412;9.514;2023-02-27T15:55:51;71722.47;;;20.40
64600;BMP280;6553;48.412;9.514;2023-02-27T15:58:30;71716.94;;;20.40
64600;BMP280;6553;48.412;9.514;2023-02-27T16:01:03;71724.84;;;20.37
64600;BMP280;6553;48.412;9.514;2023-02-27T16:03:36;71720.38;;;20.38
64600;BMP280;6553;48.412;9.514;2023-02-27T16:06:17;71715.44;;;20.36
64600;BMP280;6553;48.412;9.514;2023-02-27T16:08:58;71720.38;;;20.38
64600;BMP280;6553;48.412;9.514;2023-02-27T16:11:34;71722.47;;;20.40
64600;BMP280;6553;48.412;9.514;2023-02-27T16:14:01;71717.06;;;20.38
64600;BMP280;6553;48.412;9.514;2023-02-27T16:19:24;71716.00;;;20.37
64600;BMP280;6553;48.412;9.514;2023-02-27T16:22:14;71712.69;;;20.36
64600;BMP280;6553;48.412;9.514;2023-02-27T16:24:42;71714.41;;;20.35
64600;BMP280;6553;48.412;9.514;2023-02-27T16:27:26;71713.34;;;20.34
64600;BMP280;6553;48.412;9.514;2023-02-27T16:29:56;71714.41;;;20.35
64600;BMP280;6553;48.412;9.514;2023-02-27T16:32:40;71714.91;;;20.36
64600;BMP280;6553;48.412;9.514;2023-02-27T16:35:21;71718.22;;;20.36
64600;BMP280;6553;48.412;9.514;2023-02-27T16:37:49;71717.16;;;20.35
64600;BMP280;6553;48.412;9.514;2023-02-27T16:40:20;71709.50;;;20.33
64600;BMP280;6553;48.412;9.514;2023-02-27T16:42:48;71708.97;;;20.33
64600;BMP280;6553;48.412;9.514;2023-02-27T16:45:24;71708.03;;;20.29
64600;BMP280;6553;48.412;9.514;2023-02-27T16:47:57;71714.50;;;20.33
64600;BMP280;6553;48.412;9.514;2023-02-27T16:50:31;71704.81;;;20.26
64600;BMP280;6553;48.412;9.514;2023-02-27T16:52:58;71707.06;;;20.26
64600;BMP280;6553;48.412;9.514;2023-02-27T16:55:25;71705.91;;;20.27
64600;BMP280;6553;48.412;9.514;2023-02-27T16:57:52;71709.75;;;20.28
64600;BMP280;6553;48.412;9.514;2023-02-27T17:00:19;71713.56;;;20.29
64600;BMP280;6553;48.412;9.514;2023-02-27T17:02:45;71704.31;;;20.26
64600;BMP280;6553;48.412;9.514;2023-02-27T17:05:14;71704.72;;;20.29
64600;BMP280;6553;48.412;9.514;2023-02-27T17:07:40;71706.66;;;20.23
64600;BMP280;6553;48.412;9.514;2023-02-27T17:10:07;71709.59;;;20.31
64600;BMP280;6553;48.412;9.514;2023-02-27T17:12:33;71703.66;;;20.28
64600;BMP280;6553;48.412;9.514;2023-02-27T17:14:59;71704.31;;;20.26
64600;BMP280;6553;48.412;9.514;2023-02-27T17:17:25;71701.78;;;20.21